sensor_id;sensor_type;location;lat;lon;timestamp;P1;durP1;ratioP1;P2;durP2;ratioP2
51560;SDS011;37654;51.262;17.058;2023-08-01T00:00:28;8.15;;;2.60;;
51560;SDS011;37654;51.262;17.058;2023-08-01T00:02:53;9.35;;;2.22;;
51560;SDS011;37654;51.262;17.058;2023-08-01T00:05:18;9.70;;;2.58;;
51560;SDS011;37654;51.262;17.058;2023-08-01T00:07:44;4.97;;;2.73;;
51560;SDS011;37654;51.262;17.058;2023-08-01T00:10:09;7.40;;;2.83;;
51560;SDS011;37654;51.262;17.058;2023-08-01T00:12:34;3.55;;;2.05;;
51560;SDS011;37654;51.262;17.058;2023-08-01T00:14:59;7.30;;;2.30;;
51560;SDS011;37654;51.262;17.058;2023-08-01T00:17:25;6.15;;;2.10;;
51560;SDS011;37654;51.262;17.058;2023-08-01T00:19:50;5.10;;;2.00;;
51560;SDS011;37654;51.262;17.058;2023-08-01T00:22:15;4.47;;;2.07;;
51560;SDS011;37654;51.262;17.058;2023-08-01T00:24:41;8.83;;;2.03;;
51560;SDS011;37654;51.262;17.058;2023-08-01T00:27:06;4.07;;;1.80;;
51560;SDS011;37654;51.262;17.058;2023-08-01T00:29:34;6.18;;;2.17;;
51560;SDS011;37654;51.262;17.058;2023-08-01T00:31:59;6.50;;;1.60;;
51560;SDS011;37654;51.262;17.058;2023-08-01T00:34:24;5.80;;;2.20;;
51560;SDS011;37654;51.262;17.058;2023-08-01T00:36:50;5.73;;;2.20;;
51560;SDS011;37654;51.262;17.058;2023-08-01T00:39:15;3.33;;;1.93;;
51560;SDS011;37654;51.262;17.058;2023-08-01T00:41:40;8.18;;;3.85;;
51560;SDS011;37654;51.262;17.058;2023-08-01T00:44:05;5.07;;;2.87;;
51560;SDS011;37654;51.262;17.058;2023-08-01T00:46:31;4.63;;;2.10;;
51560;SDS011;37654;51.262;17.058;2023-08-01T00:48:57;5.32;;;2.13;;
51560;SDS011;37654;51.262;17.058;2023-08-01T00:51:24;7.03;;;3.08;;
51560;SDS011;37654;51.262;17.058;2023-08-01T00:53:49;6.30;;;2.38;;
51560;SDS011;37654;51.262;17.058;2023-08-01T00:56:15;6.43;;;2.88;;
51560;SDS011;37654;51.262;17.058;2023-08-01T00:58:40;7.33;;;2.93;;
51560;SDS011;37654;51.262;17.058;2023-08-01T01:01:05;8.07;;;3.10;;
51560;SDS011;37654;51.262;17.058;2023-08-01T01:03:30;4.87;;;2.20;;
51560;SDS011;37654;51.262;17.058;2023-08-01T01:05:57;4.97;;;2.53;;
51560;SDS011;37654;51.262;17.058;2023-08-01T01:08:24;7.03;;;2.22;;
51560;SDS011;37654;51.262;17.058;2023-08-01T01:10:50;6.43;;;2.53;;
51560;SDS011;37654;51.262;17.058;2023-08-01T01:13:15;5.03;;;2.17;;
51560;SDS011;37654;51.262;17.058;2023-08-01T01:15:40;4.70;;;2.10;;
51560;SDS011;37654;51.262;17.058;2023-08-01T01:18:05;8.13;;;2.43;;
51560;SDS011;37654;51.262;17.058;2023-08-01T01:20:34;7.70;;;2.30;;
51560;SDS011;37654;51.262;17.058;2023-08-01T01:23:00;5.55;;;2.22;;
51560;SDS011;37654;51.262;17.058;2023-08-01T01:25:26;5.43;;;2.17;;
51560;SDS011;37654;51.262;17.058;2023-08-01T01:27:52;4.03;;;2.05;;
51560;SDS011;37654;51.262;17.058;2023-08-01T01:30:18;5.60;;;1.95;;
51560;SDS011;37654;51.262;17.058;2023-08-01T01:32:44;5.97;;;2.30;;
51560;SDS011;37654;51.262;17.058;2023-08-01T01:35:10;5.55;;;2.28;;
51560;SDS011;37654;51.262;17.058;2023-08-01T01:37:35;6.47;;;2.23;;
51560;SDS011;37654;51.262;17.058;2023-08-01T01:40:00;4.03;;;2.23;;
51560;SDS011;37654;51.262;17.058;2023-08-01T01:42:25;8.23;;;2.30;;
51560;SDS011;37654;51.262;17.058;2023-08-01T01:44:51;4.13;;;2.33;;
51560;SDS011;37654;51.262;17.058;2023-08-01T01:47:17;9.73;;;2.90;;
51560;SDS011;37654;51.262;17.058;2023-08-01T01:49:42;7.55;;;2.72;;
51560;SDS011;37654;51.262;17.058;2023-08-01T01:52:07;8.70;;;2.63;;
51560;SDS011;37654;51.262;17.058;2023-08-01T01:54:32;7.37;;;2.87;;
51560;SDS011;37654;51.262;17.058;2023-08-01T01:56:58;5.93;;;2.20;;
51560;SDS011;37654;51.262;17.058;2023-08-01T01:59:23;5.50;;;2.40;;
51560;SDS011;37654;51.262;17.058;2023-08-01T02:01:48;5.40;;;2.17;;
51560;SDS011;37654;51.262;17.058;2023-08-01T02:04:13;4.57;;;2.17;;
51560;SDS011;37654;51.262;17.058;2023-08-01T02:06:39;5.53;;;2.47;;
51560;SDS011;37654;51.262;17.058;2023-08-01T02:09:04;4.63;;;2.67;;
51560;SDS011;37654;51.262;17.058;2023-08-01T02:11:29;4.45;;;2.03;;
51560;SDS011;37654;51.262;17.058;2023-08-01T02:13:55;2.83;;;1.77;;
51560;SDS011;37654;51.262;17.058;2023-08-01T02:16:20;11.80;;;2.78;;
51560;SDS011;37654;51.262;17.058;2023-08-01T02:18:45;4.33;;;1.90;;
51560;SDS011;37654;51.262;17.058;2023-08-01T02:21:10;6.80;;;2.17;;
51560;SDS011;37654;51.262;17.058;2023-08-01T02:23:36;13.33;;;3.50;;
51560;SDS011;37654;51.262;17.058;2023-08-01T02:26:02;4.50;;;2.50;;
51560;SDS011;37654;51.262;17.058;2023-08-01T02:28:28;4.22;;;2.03;;
51560;SDS011;37654;51.262;17.058;2023-08-01T02:30:53;5.17;;;2.27;;
51560;SDS011;37654;51.262;17.058;2023-08-01T02:33:18;7.63;;;2.67;;
51560;SDS011;37654;51.262;17.058;2023-08-01T02:35:45;7.37;;;2.00;;
51560;SDS011;37654;51.262;17.058;2023-08-01T02:38:10;4.43;;;1.92;;
51560;SDS011;37654;51.262;17.058;2023-08-01T02:40:36;6.13;;;2.33;;
51560;SDS011;37654;51.262;17.058;2023-08-01T02:43:01;4.63;;;2.13;;
51560;SDS011;37654;51.262;17.058;2023-08-01T02:45:27;4.22;;;1.85;;
51560;SDS011;37654;51.262;17.058;2023-08-01T02:47:53;8.75;;;2.55;;
51560;SDS011;37654;51.262;17.058;2023-08-01T02:50:18;3.73;;;1.93;;
51560;SDS011;37654;51.262;17.058;2023-08-01T02:52:43;3.17;;;2.00;;
51560;SDS011;37654;51.262;17.058;2023-08-01T02:55:08;6.97;;;2.47;;
51560;SDS011;37654;51.262;17.058;2023-08-01T02:57:34;5.93;;;2.37;;
51560;SDS011;37654;51.262;17.058;2023-08-01T02:59:59;4.20;;;2.07;;
51560;SDS011;37654;51.262;17.058;2023-08-01T03:02:24;4.57;;;2.17;;
51560;SDS011;37654;51.262;17.058;2023-08-01T03:04:49;6.77;;;2.30;;
51560;SDS011;37654;51.262;17.058;2023-08-01T03:07:15;5.57;;;2.40;;
51560;SDS011;37654;51.262;17.058;2023-08-01T03:09:40;4.90;;;1.90;;
51560;SDS011;37654;51.262;17.058;2023-08-01T03:12:07;4.50;;;1.73;;
51560;SDS011;37654;51.262;17.058;2023-08-01T03:14:33;6.90;;;2.93;;
51560;SDS011;37654;51.262;17.058;2023-08-01T03:16:58;5.23;;;1.87;;
51560;SDS011;37654;51.262;17.058;2023-08-01T03:19:23;6.37;;;2.63;;
51560;SDS011;37654;51.262;17.058;2023-08-01T03:21:49;5.93;;;2.13;;
51560;SDS011;37654;51.262;17.058;2023-08-01T03:24:14;3.95;;;2.17;;
51560;SDS011;37654;51.262;17.058;2023-08-01T03:26:39;5.03;;;2.40;;
51560;SDS011;37654;51.262;17.058;2023-08-01T03:29:05;5.40;;;2.47;;
51560;SDS011;37654;51.262;17.058;2023-08-01T03:31:30;7.10;;;2.07;;
51560;SDS011;37654;51.262;17.058;2023-08-01T03:33:55;4.40;;;2.10;;
51560;SDS011;37654;51.262;17.058;2023-08-01T03:36:23;7.45;;;2.28;;
51560;SDS011;37654;51.262;17.058;2023-08-01T03:38:48;4.63;;;2.15;;
51560;SDS011;37654;51.262;17.058;2023-08-01T03:41:13;6.70;;;2.20;;
51560;SDS011;37654;51.262;17.058;2023-08-01T03:43:39;7.83;;;2.70;;
51560;SDS011;37654;51.262;17.058;2023-08-01T03:46:04;4.40;;;2.28;;
51560;SDS011;37654;51.262;17.058;2023-08-01T03:48:30;6.80;;;2.30;;
51560;SDS011;37654;51.262;17.058;2023-08-01T03:50:55;7.05;;;2.38;;
51560;SDS011;37654;51.262;17.058;2023-08-01T03:53:20;5.03;;;1.93;;
51560;SDS011;37654;51.262;17.058;2023-08-01T03:55:46;7.53;;;2.30;;
51560;SDS011;37654;51.262;17.058;2023-08-01T03:58:12;3.70;;;1.90;;
51560;SDS011;37654;51.262;17.058;2023-08-01T04:00:37;7.15;;;2.50;;
51560;SDS011;37654;51.262;17.058;2023-08-01T04:03:02;5.20;;;2.23;;
51560;SDS011;37654;51.262;17.058;2023-08-01T04:05:28;14.18;;;3.33;;
51560;SDS011;37654;51.262;17.058;2023-08-01T04:07:53;4.78;;;2.20;;
51560;SDS011;37654;51.262;17.058;2023-08-01T04:10:22;7.30;;;2.15;;
51560;SDS011;37654;51.262;17.058;2023-08-01T04:12:47;5.35;;;2.13;;
51560;SDS011;37654;51.262;17.058;2023-08-01T04:15:12;3.90;;;2.13;;
51560;SDS011;37654;51.262;17.058;2023-08-01T04:17:37;9.10;;;2.73;;
51560;SDS011;37654;51.262;17.058;2023-08-01T04:20:03;6.50;;;2.73;;
51560;SDS011;37654;51.262;17.058;2023-08-01T04:22:28;6.30;;;2.45;;
51560;SDS011;37654;51.262;17.058;2023-08-01T04:24:53;6.03;;;2.57;;
51560;SDS011;37654;51.262;17.058;2023-08-01T04:27:19;5.90;;;2.80;;
51560;SDS011;37654;51.262;17.058;2023-08-01T04:29:44;10.23;;;3.23;;
51560;SDS011;37654;51.262;17.058;2023-08-01T04:32:09;9.27;;;2.78;;
51560;SDS011;37654;51.262;17.058;2023-08-01T04:34:37;5.38;;;2.28;;
51560;SDS011;37654;51.262;17.058;2023-08-01T04:37:03;5.25;;;2.17;;
51560;SDS011;37654;51.262;17.058;2023-08-01T04:39:28;10.15;;;3.03;;
51560;SDS011;37654;51.262;17.058;2023-08-01T04:41:53;9.80;;;2.77;;
51560;SDS011;37654;51.262;17.058;2023-08-01T04:44:19;9.17;;;2.63;;
51560;SDS011;37654;51.262;17.058;2023-08-01T04:46:44;5.73;;;2.70;;
51560;SDS011;37654;51.262;17.058;2023-08-01T04:49:09;9.27;;;3.20;;
51560;SDS011;37654;51.262;17.058;2023-08-01T04:51:34;3.43;;;2.03;;
51560;SDS011;37654;51.262;17.058;2023-08-01T04:54:00;6.70;;;2.13;;
51560;SDS011;37654;51.262;17.058;2023-08-01T04:56:25;7.97;;;2.67;;
51560;SDS011;37654;51.262;17.058;2023-08-01T04:58:50;3.53;;;2.23;;
51560;SDS011;37654;51.262;17.058;2023-08-01T05:01:15;4.17;;;2.40;;
51560;SDS011;37654;51.262;17.058;2023-08-01T05:03:41;8.80;;;2.93;;
51560;SDS011;37654;51.262;17.058;2023-08-01T05:06:06;7.13;;;2.93;;
51560;SDS011;37654;51.262;17.058;2023-08-01T05:08:31;5.93;;;2.80;;
51560;SDS011;37654;51.262;17.058;2023-08-01T05:10:56;9.93;;;4.03;;
51560;SDS011;37654;51.262;17.058;2023-08-01T05:13:23;4.93;;;2.70;;
51560;SDS011;37654;51.262;17.058;2023-08-01T05:15:48;7.47;;;3.42;;
51560;SDS011;37654;51.262;17.058;2023-08-01T05:18:14;13.30;;;3.67;;
51560;SDS011;37654;51.262;17.058;2023-08-01T05:20:39;5.45;;;2.92;;
51560;SDS011;37654;51.262;17.058;2023-08-01T05:23:04;8.20;;;3.03;;
51560;SDS011;37654;51.262;17.058;2023-08-01T05:25:30;8.50;;;3.20;;
51560;SDS011;37654;51.262;17.058;2023-08-01T05:27:55;8.40;;;2.63;;
51560;SDS011;37654;51.262;17.058;2023-08-01T05:30:20;11.40;;;3.20;;
51560;SDS011;37654;51.262;17.058;2023-08-01T05:32:45;8.30;;;2.63;;
51560;SDS011;37654;51.262;17.058;2023-08-01T05:35:12;5.97;;;2.83;;
51560;SDS011;37654;51.262;17.058;2023-08-01T05:37:37;8.27;;;2.87;;
51560;SDS011;37654;51.262;17.058;2023-08-01T05:40:02;7.50;;;3.33;;
51560;SDS011;37654;51.262;17.058;2023-08-01T05:42:28;6.28;;;3.05;;
51560;SDS011;37654;51.262;17.058;2023-08-01T05:44:54;7.50;;;2.67;;
51560;SDS011;37654;51.262;17.058;2023-08-01T05:47:19;8.03;;;3.00;;
51560;SDS011;37654;51.262;17.058;2023-08-01T05:49:44;7.78;;;3.17;;
51560;SDS011;37654;51.262;17.058;2023-08-01T05:52:09;7.47;;;3.00;;
51560;SDS011;37654;51.262;17.058;2023-08-01T05:54:35;6.10;;;2.50;;
51560;SDS011;37654;51.262;17.058;2023-08-01T05:57:00;4.33;;;2.70;;
51560;SDS011;37654;51.262;17.058;2023-08-01T05:59:25;11.33;;;3.37;;
51560;SDS011;37654;51.262;17.058;2023-08-01T06:01:51;6.20;;;3.28;;
51560;SDS011;37654;51.262;17.058;2023-08-01T06:04:17;10.10;;;3.53;;
51560;SDS011;37654;51.262;17.058;2023-08-01T06:06:42;5.93;;;4.10;;
51560;SDS011;37654;51.262;17.058;2023-08-01T06:09:07;6.37;;;3.67;;
51560;SDS011;37654;51.262;17.058;2023-08-01T06:11:33;7.88;;;2.95;;
51560;SDS011;37654;51.262;17.058;2023-08-01T06:13:58;7.05;;;3.47;;
51560;SDS011;37654;51.262;17.058;2023-08-01T06:16:24;10.77;;;3.30;;
51560;SDS011;37654;51.262;17.058;2023-08-01T06:18:49;7.50;;;3.80;;
51560;SDS011;37654;51.262;17.058;2023-08-01T06:21:14;5.93;;;2.90;;
51560;SDS011;37654;51.262;17.058;2023-08-01T06:23:39;6.27;;;3.33;;
51560;SDS011;37654;51.262;17.058;2023-08-01T06:26:05;8.43;;;3.13;;
51560;SDS011;37654;51.262;17.058;2023-08-01T06:28:30;7.07;;;3.97;;
51560;SDS011;37654;51.262;17.058;2023-08-01T06:30:56;6.60;;;3.42;;
51560;SDS011;37654;51.262;17.058;2023-08-01T06:33:21;8.23;;;3.35;;
51560;SDS011;37654;51.262;17.058;2023-08-01T06:35:46;8.53;;;3.57;;
51560;SDS011;37654;51.262;17.058;2023-08-01T06:38:12;8.65;;;3.58;;
51560;SDS011;37654;51.262;17.058;2023-08-01T06:40:37;5.70;;;3.17;;
51560;SDS011;37654;51.262;17.058;2023-08-01T06:43:02;4.60;;;3.00;;
51560;SDS011;37654;51.262;17.058;2023-08-01T06:45:28;8.73;;;3.10;;
51560;SDS011;37654;51.262;17.058;2023-08-01T06:47:53;13.67;;;3.83;;
51560;SDS011;37654;51.262;17.058;2023-08-01T06:50:18;5.60;;;3.13;;
51560;SDS011;37654;51.262;17.058;2023-08-01T06:52:43;7.50;;;3.50;;
51560;SDS011;37654;51.262;17.058;2023-08-01T06:55:09;11.97;;;4.60;;
51560;SDS011;37654;51.262;17.058;2023-08-01T06:57:34;8.07;;;3.50;;
51560;SDS011;37654;51.262;17.058;2023-08-01T06:59:59;6.72;;;3.40;;
51560;SDS011;37654;51.262;17.058;2023-08-01T07:02:25;7.20;;;2.83;;
51560;SDS011;37654;51.262;17.058;2023-08-01T07:04:50;13.40;;;3.80;;
51560;SDS011;37654;51.262;17.058;2023-08-01T07:07:15;5.90;;;2.90;;
51560;SDS011;37654;51.262;17.058;2023-08-01T07:09:41;8.65;;;3.60;;
51560;SDS011;37654;51.262;17.058;2023-08-01T07:12:06;5.57;;;4.00;;
51560;SDS011;37654;51.262;17.058;2023-08-01T07:14:31;6.32;;;3.55;;
51560;SDS011;37654;51.262;17.058;2023-08-01T07:16:57;9.00;;;3.73;;
51560;SDS011;37654;51.262;17.058;2023-08-01T07:19:22;8.30;;;4.20;;
51560;SDS011;37654;51.262;17.058;2023-08-01T07:21:47;4.73;;;3.13;;
51560;SDS011;37654;51.262;17.058;2023-08-01T07:24:14;6.22;;;3.47;;
51560;SDS011;37654;51.262;17.058;2023-08-01T07:26:40;8.60;;;3.53;;
51560;SDS011;37654;51.262;17.058;2023-08-01T07:29:05;7.47;;;3.33;;
51560;SDS011;37654;51.262;17.058;2023-08-01T07:31:33;8.88;;;3.78;;
51560;SDS011;37654;51.262;17.058;2023-08-01T07:33:58;11.13;;;3.67;;
51560;SDS011;37654;51.262;17.058;2023-08-01T07:36:24;10.90;;;3.37;;
51560;SDS011;37654;51.262;17.058;2023-08-01T07:38:49;8.67;;;3.77;;
51560;SDS011;37654;51.262;17.058;2023-08-01T07:41:14;9.37;;;3.33;;
51560;SDS011;37654;51.262;17.058;2023-08-01T07:43:40;13.05;;;3.70;;
51560;SDS011;37654;51.262;17.058;2023-08-01T07:46:05;5.07;;;2.90;;
51560;SDS011;37654;51.262;17.058;2023-08-01T07:48:30;5.75;;;3.70;;
51560;SDS011;37654;51.262;17.058;2023-08-01T07:50:55;5.73;;;3.47;;
51560;SDS011;37654;51.262;17.058;2023-08-01T07:53:21;7.33;;;3.37;;
51560;SDS011;37654;51.262;17.058;2023-08-01T07:55:46;6.90;;;3.20;;
51560;SDS011;37654;51.262;17.058;2023-08-01T07:58:11;9.33;;;4.37;;
51560;SDS011;37654;51.262;17.058;2023-08-01T08:00:37;9.10;;;4.25;;
51560;SDS011;37654;51.262;17.058;2023-08-01T08:03:04;8.77;;;4.07;;
51560;SDS011;37654;51.262;17.058;2023-08-01T08:05:30;9.35;;;3.60;;
51560;SDS011;37654;51.262;17.058;2023-08-01T08:07:56;7.07;;;3.47;;
51560;SDS011;37654;51.262;17.058;2023-08-01T08:10:21;8.10;;;3.20;;
51560;SDS011;37654;51.262;17.058;2023-08-01T08:12:46;6.10;;;3.20;;
51560;SDS011;37654;51.262;17.058;2023-08-01T08:15:11;6.80;;;3.57;;
51560;SDS011;37654;51.262;17.058;2023-08-01T08:17:38;5.78;;;3.75;;
51560;SDS011;37654;51.262;17.058;2023-08-01T08:20:04;7.27;;;3.70;;
51560;SDS011;37654;51.262;17.058;2023-08-01T08:22:31;7.88;;;3.45;;
51560;SDS011;37654;51.262;17.058;2023-08-01T08:24:56;7.23;;;3.37;;
51560;SDS011;37654;51.262;17.058;2023-08-01T08:27:21;9.83;;;4.33;;
51560;SDS011;37654;51.262;17.058;2023-08-01T08:29:46;7.47;;;3.00;;
51560;SDS011;37654;51.262;17.058;2023-08-01T08:32:12;6.50;;;2.80;;
51560;SDS011;37654;51.262;17.058;2023-08-01T08:34:37;10.40;;;3.10;;
51560;SDS011;37654;51.262;17.058;2023-08-01T08:37:04;5.03;;;2.30;;
51560;SDS011;37654;51.262;17.058;2023-08-01T08:39:29;7.55;;;3.28;;
51560;SDS011;37654;51.262;17.058;2023-08-01T08:41:55;4.27;;;2.40;;
51560;SDS011;37654;51.262;17.058;2023-08-01T08:44:20;5.38;;;2.85;;
51560;SDS011;37654;51.262;17.058;2023-08-01T08:46:49;5.68;;;2.78;;
51560;SDS011;37654;51.262;17.058;2023-08-01T08:49:14;3.70;;;2.13;;
51560;SDS011;37654;51.262;17.058;2023-08-01T08:51:41;7.72;;;2.88;;
51560;SDS011;37654;51.262;17.058;2023-08-01T08:54:07;5.32;;;2.95;;
51560;SDS011;37654;51.262;17.058;2023-08-01T08:56:33;13.75;;;3.60;;
51560;SDS011;37654;51.262;17.058;2023-08-01T08:58:58;5.10;;;2.90;;
51560;SDS011;37654;51.262;17.058;2023-08-01T09:01:24;8.20;;;2.90;;
51560;SDS011;37654;51.262;17.058;2023-08-01T09:03:49;6.30;;;2.57;;
51560;SDS011;37654;51.262;17.058;2023-08-01T09:06:15;7.22;;;2.50;;
51560;SDS011;37654;51.262;17.058;2023-08-01T09:08:42;6.72;;;3.10;;
51560;SDS011;37654;51.262;17.058;2023-08-01T09:11:10;4.50;;;2.70;;
51560;SDS011;37654;51.262;17.058;2023-08-01T09:13:35;5.10;;;2.33;;
51560;SDS011;37654;51.262;17.058;2023-08-01T09:16:01;8.73;;;3.03;;
51560;SDS011;37654;51.262;17.058;2023-08-01T09:18:27;7.78;;;2.50;;
51560;SDS011;37654;51.262;17.058;2023-08-01T09:20:53;6.30;;;2.83;;
51560;SDS011;37654;51.262;17.058;2023-08-01T09:23:18;7.60;;;2.95;;
51560;SDS011;37654;51.262;17.058;2023-08-01T09:25:43;4.87;;;2.47;;
51560;SDS011;37654;51.262;17.058;2023-08-01T09:28:42;6.55;;;2.70;;
51560;SDS011;37654;51.262;17.058;2023-08-01T09:31:01;6.55;;;2.85;;
51560;SDS011;37654;51.262;17.058;2023-08-01T09:33:26;7.47;;;3.07;;
51560;SDS011;37654;51.262;17.058;2023-08-01T09:38:33;6.10;;;2.88;;
51560;SDS011;37654;51.262;17.058;2023-08-01T09:40:58;7.93;;;3.58;;
51560;SDS011;37654;51.262;17.058;2023-08-01T09:43:24;4.63;;;2.80;;
51560;SDS011;37654;51.262;17.058;2023-08-01T09:45:50;7.05;;;2.90;;
51560;SDS011;37654;51.262;17.058;2023-08-01T09:53:50;8.05;;;3.30;;
51560;SDS011;37654;51.262;17.058;2023-08-01T09:56:18;5.95;;;2.67;;
51560;SDS011;37654;51.262;17.058;2023-08-01T09:58:43;7.78;;;2.88;;
51560;SDS011;37654;51.262;17.058;2023-08-01T10:01:09;8.35;;;3.60;;
51560;SDS011;37654;51.262;17.058;2023-08-01T10:03:35;6.93;;;3.22;;
51560;SDS011;37654;51.262;17.058;2023-08-01T10:06:00;8.67;;;2.77;;
51560;SDS011;37654;51.262;17.058;2023-08-01T10:08:26;7.27;;;3.97;;
51560;SDS011;37654;51.262;17.058;2023-08-01T10:10:52;8.02;;;4.05;;
51560;SDS011;37654;51.262;17.058;2023-08-01T10:13:21;3.95;;;2.83;;
51560;SDS011;37654;51.262;17.058;2023-08-01T10:15:48;8.82;;;2.97;;
51560;SDS011;37654;51.262;17.058;2023-08-01T10:18:14;5.60;;;2.85;;
51560;SDS011;37654;51.262;17.058;2023-08-01T10:20:40;7.97;;;4.15;;
51560;SDS011;37654;51.262;17.058;2023-08-01T10:23:06;10.85;;;3.90;;
51560;SDS011;37654;51.262;17.058;2023-08-01T10:25:32;6.65;;;3.35;;
51560;SDS011;37654;51.262;17.058;2023-08-01T10:27:58;9.13;;;3.63;;
51560;SDS011;37654;51.262;17.058;2023-08-01T10:30:27;6.25;;;2.92;;
51560;SDS011;37654;51.262;17.058;2023-08-01T10:32:54;5.43;;;2.63;;
51560;SDS011;37654;51.262;17.058;2023-08-01T10:35:20;8.27;;;2.65;;
51560;SDS011;37654;51.262;17.058;2023-08-01T10:38:03;5.97;;;2.22;;
51560;SDS011;37654;51.262;17.058;2023-08-01T10:40:35;4.32;;;2.10;;
51560;SDS011;37654;51.262;17.058;2023-08-01T10:43:00;3.90;;;2.38;;
51560;SDS011;37654;51.262;17.058;2023-08-01T10:45:26;4.57;;;2.53;;
51560;SDS011;37654;51.262;17.058;2023-08-01T10:47:53;6.95;;;2.85;;
51560;SDS011;37654;51.262;17.058;2023-08-01T10:50:18;5.57;;;2.70;;
51560;SDS011;37654;51.262;17.058;2023-08-01T10:52:44;7.93;;;2.95;;
51560;SDS011;37654;51.262;17.058;2023-08-01T10:55:09;5.45;;;2.35;;
51560;SDS011;37654;51.262;17.058;2023-08-01T10:57:36;5.40;;;3.13;;
51560;SDS011;37654;51.262;17.058;2023-08-01T11:00:02;5.90;;;2.67;;
51560;SDS011;37654;51.262;17.058;2023-08-01T11:02:29;5.25;;;2.55;;
51560;SDS011;37654;51.262;17.058;2023-08-01T11:04:56;4.57;;;2.33;;
51560;SDS011;37654;51.262;17.058;2023-08-01T11:07:21;2.90;;;2.13;;
51560;SDS011;37654;51.262;17.058;2023-08-01T11:09:47;5.47;;;2.30;;
51560;SDS011;37654;51.262;17.058;2023-08-01T11:12:12;6.17;;;2.43;;
51560;SDS011;37654;51.262;17.058;2023-08-01T11:14:37;3.23;;;2.20;;
51560;SDS011;37654;51.262;17.058;2023-08-01T11:17:02;4.00;;;2.47;;
51560;SDS011;37654;51.262;17.058;2023-08-01T11:19:29;4.55;;;2.60;;
51560;SDS011;37654;51.262;17.058;2023-08-01T11:21:54;7.28;;;2.63;;
51560;SDS011;37654;51.262;17.058;2023-08-01T11:24:24;3.97;;;2.33;;
51560;SDS011;37654;51.262;17.058;2023-08-01T11:26:50;6.65;;;2.53;;
51560;SDS011;37654;51.262;17.058;2023-08-01T11:29:16;6.63;;;3.90;;
51560;SDS011;37654;51.262;17.058;2023-08-01T11:31:41;7.93;;;2.90;;
51560;SDS011;37654;51.262;17.058;2023-08-01T11:34:17;7.53;;;2.88;;
51560;SDS011;37654;51.262;17.058;2023-08-01T11:36:43;4.47;;;2.50;;
51560;SDS011;37654;51.262;17.058;2023-08-01T11:39:10;4.57;;;2.65;;
51560;SDS011;37654;51.262;17.058;2023-08-01T11:41:37;3.45;;;2.65;;
51560;SDS011;37654;51.262;17.058;2023-08-01T11:44:02;5.70;;;2.97;;
51560;SDS011;37654;51.262;17.058;2023-08-01T11:46:30;7.07;;;3.30;;
51560;SDS011;37654;51.262;17.058;2023-08-01T11:48:56;5.70;;;2.75;;
51560;SDS011;37654;51.262;17.058;2023-08-01T11:51:21;9.18;;;2.97;;
51560;SDS011;37654;51.262;17.058;2023-08-01T11:53:47;7.40;;;2.87;;
51560;SDS011;37654;51.262;17.058;2023-08-01T11:58:47;7.00;;;2.60;;
51560;SDS011;37654;51.262;17.058;2023-08-01T12:01:13;5.95;;;2.75;;
51560;SDS011;37654;51.262;17.058;2023-08-01T12:03:42;9.93;;;3.15;;
51560;SDS011;37654;51.262;17.058;2023-08-01T12:06:08;4.60;;;2.60;;
51560;SDS011;37654;51.262;17.058;2023-08-01T12:08:34;3.95;;;2.78;;
51560;SDS011;37654;51.262;17.058;2023-08-01T12:11:00;5.28;;;2.47;;
51560;SDS011;37654;51.262;17.058;2023-08-01T12:13:25;4.22;;;2.78;;
51560;SDS011;37654;51.262;17.058;2023-08-01T12:15:51;5.03;;;2.33;;
51560;SDS011;37654;51.262;17.058;2023-08-01T12:18:20;4.22;;;2.40;;
51560;SDS011;37654;51.262;17.058;2023-08-01T12:20:46;7.43;;;2.38;;
51560;SDS011;37654;51.262;17.058;2023-08-01T12:23:11;3.53;;;2.43;;
51560;SDS011;37654;51.262;17.058;2023-08-01T12:25:37;5.93;;;2.13;;
51560;SDS011;37654;51.262;17.058;2023-08-01T12:28:02;3.30;;;1.60;;
51560;SDS011;37654;51.262;17.058;2023-08-01T12:30:27;5.10;;;1.77;;
51560;SDS011;37654;51.262;17.058;2023-08-01T12:32:52;3.63;;;1.73;;
51560;SDS011;37654;51.262;17.058;2023-08-01T12:35:18;4.10;;;1.77;;
51560;SDS011;37654;51.262;17.058;2023-08-01T12:37:43;3.77;;;1.67;;
51560;SDS011;37654;51.262;17.058;2023-08-01T12:40:08;2.17;;;1.47;;
51560;SDS011;37654;51.262;17.058;2023-08-01T12:42:34;1.88;;;1.52;;
51560;SDS011;37654;51.262;17.058;2023-08-01T12:44:59;2.00;;;1.10;;
51560;SDS011;37654;51.262;17.058;2023-08-01T12:47:25;3.97;;;1.35;;
51560;SDS011;37654;51.262;17.058;2023-08-01T12:49:50;2.33;;;1.43;;
51560;SDS011;37654;51.262;17.058;2023-08-01T12:52:21;12.77;;;1.65;;
51560;SDS011;37654;51.262;17.058;2023-08-01T12:54:48;2.45;;;1.30;;
51560;SDS011;37654;51.262;17.058;2023-08-01T12:57:13;1.53;;;1.20;;
51560;SDS011;37654;51.262;17.058;2023-08-01T12:59:38;7.13;;;1.57;;
51560;SDS011;37654;51.262;17.058;2023-08-01T13:02:03;2.60;;;1.30;;
51560;SDS011;37654;51.262;17.058;2023-08-01T13:04:33;2.20;;;1.60;;
51560;SDS011;37654;51.262;17.058;2023-08-01T13:06:58;1.83;;;1.35;;
51560;SDS011;37654;51.262;17.058;2023-08-01T13:09:24;4.10;;;1.07;;
51560;SDS011;37654;51.262;17.058;2023-08-01T13:11:49;2.83;;;1.17;;
51560;SDS011;37654;51.262;17.058;2023-08-01T13:14:14;1.73;;;1.23;;
51560;SDS011;37654;51.262;17.058;2023-08-01T13:16:39;1.43;;;1.00;;
51560;SDS011;37654;51.262;17.058;2023-08-01T13:19:05;3.03;;;1.47;;
51560;SDS011;37654;51.262;17.058;2023-08-01T13:21:31;2.38;;;1.05;;
51560;SDS011;37654;51.262;17.058;2023-08-01T13:23:57;1.88;;;1.17;;
51560;SDS011;37654;51.262;17.058;2023-08-01T13:26:23;2.00;;;1.10;;
51560;SDS011;37654;51.262;17.058;2023-08-01T13:28:48;3.33;;;1.07;;
51560;SDS011;37654;51.262;17.058;2023-08-01T13:31:13;2.40;;;1.30;;
51560;SDS011;37654;51.262;17.058;2023-08-01T13:33:38;3.17;;;1.50;;
51560;SDS011;37654;51.262;17.058;2023-08-01T13:36:04;5.33;;;2.13;;
51560;SDS011;37654;51.262;17.058;2023-08-01T13:38:29;2.70;;;1.70;;
51560;SDS011;37654;51.262;17.058;2023-08-01T13:40:58;2.05;;;1.30;;
51560;SDS011;37654;51.262;17.058;2023-08-01T13:43:23;3.70;;;1.33;;
51560;SDS011;37654;51.262;17.058;2023-08-01T13:45:48;7.23;;;1.63;;
51560;SDS011;37654;51.262;17.058;2023-08-01T13:48:14;3.33;;;1.13;;
51560;SDS011;37654;51.262;17.058;2023-08-01T13:50:39;1.60;;;1.20;;
51560;SDS011;37654;51.262;17.058;2023-08-01T13:53:04;3.17;;;1.17;;
51560;SDS011;37654;51.262;17.058;2023-08-01T13:55:32;2.38;;;1.30;;
51560;SDS011;37654;51.262;17.058;2023-08-01T13:57:57;1.65;;;1.23;;
51560;SDS011;37654;51.262;17.058;2023-08-01T14:00:23;1.73;;;1.07;;
51560;SDS011;37654;51.262;17.058;2023-08-01T14:02:51;2.30;;;1.20;;
51560;SDS011;37654;51.262;17.058;2023-08-01T14:05:16;4.55;;;1.67;;
51560;SDS011;37654;51.262;17.058;2023-08-01T14:07:42;4.70;;;1.60;;
51560;SDS011;37654;51.262;17.058;2023-08-01T14:10:07;2.17;;;1.40;;
51560;SDS011;37654;51.262;17.058;2023-08-01T14:12:34;2.13;;;1.25;;
51560;SDS011;37654;51.262;17.058;2023-08-01T14:14:59;2.00;;;1.40;;
51560;SDS011;37654;51.262;17.058;2023-08-01T14:17:24;3.70;;;0.93;;
51560;SDS011;37654;51.262;17.058;2023-08-01T14:19:50;4.37;;;1.57;;
51560;SDS011;37654;51.262;17.058;2023-08-01T14:22:15;2.28;;;1.35;;
51560;SDS011;37654;51.262;17.058;2023-08-01T14:24:40;4.10;;;1.70;;
51560;SDS011;37654;51.262;17.058;2023-08-01T14:27:07;4.90;;;1.30;;
51560;SDS011;37654;51.262;17.058;2023-08-01T14:29:33;4.00;;;1.35;;
51560;SDS011;37654;51.262;17.058;2023-08-01T14:31:59;2.85;;;2.13;;
51560;SDS011;37654;51.262;17.058;2023-08-01T14:34:24;5.83;;;1.10;;